createdAt,value
2019-03-13T00:01:09.545Z,99010.00
2019-03-13T00:03:35.337Z,99010.50
2019-03-13T00:06:01.148Z,99014.52
2019-03-13T00:08:26.940Z,99017.72
2019-03-13T00:10:52.734Z,99032.44
2019-03-13T00:13:18.518Z,99067.31
2019-03-13T00:15:44.317Z,99070.08
2019-03-13T00:18:10.101Z,99065.87
2019-03-13T00:20:35.903Z,99088.77
2019-03-13T00:23:01.698Z,99106.23
2019-03-13T00:25:27.524Z,99104.86
2019-03-13T00:27:53.405Z,99120.55
2019-03-13T00:30:19.226Z,99125.35
2019-03-13T00:32:44.999Z,99129.33
2019-03-13T00:35:10.783Z,99137.63
2019-03-13T00:37:36.577Z,99140.23
2019-03-13T00:40:08.230Z,99145.64
2019-03-13T00:42:34.031Z,99147.27
2019-03-13T00:44:59.815Z,99147.89
2019-03-13T00:47:25.611Z,99151.23
2019-03-13T00:49:51.393Z,99156.19
2019-03-13T00:52:17.196Z,99155.63
2019-03-13T00:54:43.006Z,99159.63
2019-03-13T00:57:08.819Z,99158.93
2019-03-13T00:59:34.595Z,99159.88
2019-03-13T01:02:02.288Z,99170.14
2019-03-13T01:04:29.979Z,99164.91
2019-03-13T01:06:57.696Z,99163.95
2019-03-13T01:09:23.502Z,99171.05
2019-03-13T01:11:49.286Z,99175.38
2019-03-13T01:14:15.075Z,99191.27
2019-03-13T01:16:40.859Z,99188.31
2019-03-13T01:19:06.646Z,99179.11
2019-03-13T01:21:32.468Z,99181.36
2019-03-13T01:23:58.245Z,99185.05
2019-03-13T01:26:24.025Z,99192.33
2019-03-13T01:28:49.815Z,99186.00
2019-03-13T01:31:26.252Z,99198.45
2019-03-13T01:33:53.945Z,99200.63
2019-03-13T01:36:19.729Z,99203.94
2019-03-13T01:38:45.521Z,99205.45
2019-03-13T01:41:11.308Z,99215.64
2019-03-13T01:43:37.100Z,99214.20
2019-03-13T01:46:02.979Z,99222.77
2019-03-13T01:48:28.769Z,99223.62
2019-03-13T01:50:54.544Z,99222.17
2019-03-13T01:53:20.348Z,99225.02
2019-03-13T01:55:46.127Z,99229.14
2019-03-13T01:58:11.936Z,99227.20
2019-03-13T02:00:37.711Z,99227.30
2019-03-13T02:03:03.523Z,99232.54
2019-03-13T02:05:29.297Z,99234.69
2019-03-13T02:07:55.110Z,99234.73
2019-03-13T02:10:20.896Z,99227.80
2019-03-13T02:12:46.672Z,99237.47
2019-03-13T02:15:17.674Z,99242.55
2019-03-13T02:17:43.458Z,99238.53
2019-03-13T02:20:09.545Z,99244.06
2019-03-13T02:22:35.330Z,99243.81
2019-03-13T02:25:01.218Z,99242.02
2019-03-13T02:27:26.997Z,99247.86
2019-03-13T02:29:52.790Z,99244.38
2019-03-13T02:32:18.720Z,99243.75
2019-03-13T02:34:44.589Z,99232.58
2019-03-13T02:37:10.459Z,99239.06
2019-03-13T02:39:36.248Z,99236.02
2019-03-13T02:42:02.035Z,99237.10
2019-03-13T02:44:27.825Z,99242.60
2019-03-13T02:46:53.607Z,99249.61
2019-03-13T02:49:19.403Z,99238.11
2019-03-13T02:51:45.177Z,99243.61
2019-03-13T02:54:10.982Z,99240.94
2019-03-13T02:56:36.864Z,99241.48
2019-03-13T02:59:02.671Z,99239.13
2019-03-13T03:01:30.357Z,99241.55
2019-03-13T03:03:58.051Z,99232.92
2019-03-13T03:06:23.976Z,99239.13
2019-03-13T03:08:49.740Z,99242.12
2019-03-13T03:11:15.534Z,99247.84
2019-03-13T03:13:41.312Z,99235.12
2019-03-13T03:16:07.105Z,99232.08
2019-03-13T03:18:32.888Z,99231.75
2019-03-13T03:20:58.693Z,99228.12
2019-03-13T03:23:24.472Z,99228.45
2019-03-13T03:25:50.261Z,99223.36
2019-03-13T03:28:16.039Z,99224.61
2019-03-13T03:30:41.862Z,99223.20
2019-03-13T03:33:07.617Z,99225.08
2019-03-13T03:35:33.418Z,99221.28
2019-03-13T03:37:59.200Z,99224.16
2019-03-13T03:40:24.991Z,99223.84
2019-03-13T03:42:50.770Z,99230.42
2019-03-13T03:45:17.002Z,99223.19
2019-03-13T03:47:42.760Z,99225.27
2019-03-13T03:50:10.968Z,99218.49
2019-03-13T03:52:36.765Z,99227.56
2019-03-13T03:55:05.036Z,99218.77
2019-03-13T03:57:30.838Z,99220.98
2019-03-13T03:59:56.610Z,99235.80
2019-03-13T04:02:22.398Z,99229.81
2019-03-13T04:04:48.174Z,99222.44
2019-03-13T04:07:13.993Z,99221.94
2019-03-13T04:09:39.777Z,99221.94
2019-03-13T04:12:05.585Z,99220.60
2019-03-13T04:14:31.363Z,99219.77
2019-03-13T04:16:57.151Z,99225.42
2019-03-13T04:19:22.923Z,99208.76
2019-03-13T04:21:48.707Z,99202.39
2019-03-13T04:24:14.489Z,99195.64
2019-03-13T04:26:42.171Z,99201.48
2019-03-13T04:29:07.953Z,99204.89
2019-03-13T04:31:33.772Z,99202.22
2019-03-13T04:33:59.523Z,99195.95
2019-03-13T04:36:25.315Z,99197.41
2019-03-13T04:38:51.099Z,99200.92
2019-03-13T04:41:16.885Z,99195.16
2019-03-13T04:43:42.666Z,99192.16
2019-03-13T04:46:08.464Z,99192.27
2019-03-13T04:48:34.254Z,99185.59
2019-03-13T04:51:00.032Z,99191.42
2019-03-13T04:53:25.833Z,99197.51
2019-03-13T04:55:52.657Z,99184.42
2019-03-13T04:58:18.724Z,99191.63
2019-03-13T05:00:44.497Z,99186.29
2019-03-13T05:03:10.297Z,99191.78
2019-03-13T05:05:40.393Z,99192.87
2019-03-13T05:08:06.238Z,99181.40
2019-03-13T05:10:31.982Z,99184.81
2019-03-13T05:12:57.922Z,99185.84
2019-03-13T05:15:23.757Z,99186.05
2019-03-13T05:17:49.563Z,99177.08
2019-03-13T05:20:15.335Z,99181.51
2019-03-13T05:22:41.141Z,99176.38
2019-03-13T05:25:06.922Z,99180.17
2019-03-13T05:27:32.717Z,99167.65
2019-03-13T05:29:58.497Z,99174.65
2019-03-13T05:32:24.281Z,99175.98
2019-03-13T05:34:50.067Z,99164.66
2019-03-13T05:37:15.851Z,99164.03
2019-03-13T05:39:41.642Z,99160.02
2019-03-13T05:42:07.423Z,99157.42
2019-03-13T05:44:33.219Z,99155.77
2019-03-13T05:46:58.998Z,99150.95
2019-03-13T05:49:24.805Z,99158.37
2019-03-13T05:51:50.584Z,99145.22
2019-03-13T05:54:16.377Z,99152.95
2019-03-13T05:56:42.167Z,99162.30
2019-03-13T05:59:07.951Z,99150.06
2019-03-13T06:01:33.732Z,99156.95
2019-03-13T06:03:59.525Z,99153.16
2019-03-13T06:06:25.322Z,99154.18
2019-03-13T06:08:51.120Z,99148.94
2019-03-13T06:11:16.902Z,99160.26
2019-03-13T06:13:42.701Z,99156.46
2019-03-13T06:16:08.480Z,99162.65
2019-03-13T06:18:34.288Z,99160.16
2019-03-13T06:21:00.070Z,99146.30
2019-03-13T06:23:25.886Z,99157.91
2019-03-13T06:25:51.666Z,99153.16
2019-03-13T06:28:17.456Z,99148.13
2019-03-13T06:30:43.238Z,99166.52
2019-03-13T06:33:09.028Z,99164.88
2019-03-13T06:35:34.818Z,99154.59
2019-03-13T06:38:00.609Z,99157.77
2019-03-13T06:40:26.397Z,99153.97
2019-03-13T06:42:52.175Z,99160.36
2019-03-13T06:45:17.983Z,99161.63
2019-03-13T06:47:43.756Z,99153.71
2019-03-13T06:50:18.360Z,99160.78
2019-03-13T06:52:44.146Z,99154.42
2019-03-13T06:55:10.146Z,99154.34
2019-03-13T06:57:35.933Z,99149.80
2019-03-13T07:00:23.081Z,99152.38
2019-03-13T07:03:08.878Z,99150.09
2019-03-13T07:05:42.381Z,99144.64
2019-03-13T07:08:18.904Z,99140.13
2019-03-13T07:10:58.239Z,99145.16
2019-03-13T07:13:37.663Z,99135.41
2019-03-13T07:16:14.376Z,99133.77
2019-03-13T07:18:42.060Z,99126.58
2019-03-13T07:21:12.564Z,99128.83
2019-03-13T07:23:49.274Z,99131.21
2019-03-13T07:26:16.973Z,99136.14
2019-03-13T07:28:47.425Z,99131.34
2019-03-13T07:31:24.283Z,99137.21
2019-03-13T07:34:00.835Z,99128.56
2019-03-13T07:36:28.553Z,99129.50
2019-03-13T07:38:58.760Z,99138.23
2019-03-13T07:41:26.466Z,99133.81
2019-03-13T07:43:54.162Z,99133.73
2019-03-13T07:46:21.861Z,99145.47
2019-03-13T07:49:04.358Z,99136.92
2019-03-13T07:51:32.053Z,99128.70
2019-03-13T07:54:08.384Z,99130.67
2019-03-13T07:56:36.083Z,99135.28
2019-03-13T07:59:06.279Z,99130.69
2019-03-13T08:01:39.607Z,99133.78
2019-03-13T08:04:07.298Z,99129.05
2019-03-13T08:06:43.920Z,99136.96
2019-03-13T08:09:28.326Z,99130.48
2019-03-13T08:12:04.922Z,99124.61
2019-03-13T08:14:38.481Z,99128.52
2019-03-13T08:17:06.178Z,99106.02
2019-03-13T08:19:42.452Z,99113.83
2019-03-13T08:22:15.756Z,99110.63
2019-03-13T08:24:49.293Z,99104.47
2019-03-13T08:27:17.001Z,99101.08
2019-03-13T08:29:44.690Z,99102.11
2019-03-13T08:32:21.194Z,99101.70
2019-03-13T08:35:06.978Z,99100.55
2019-03-13T08:37:37.456Z,99095.20
2019-03-13T08:40:18.321Z,99094.27
2019-03-13T08:42:46.021Z,99095.83
2019-03-13T08:45:20.090Z,99093.77
2019-03-13T08:48:05.729Z,99100.37
2019-03-13T08:50:42.004Z,99093.05
2019-03-13T08:53:15.265Z,99096.13
2019-03-13T08:55:59.317Z,99099.22
2019-03-13T08:58:39.093Z,99081.41
2019-03-13T09:01:23.614Z,99090.98
2019-03-13T09:03:57.112Z,99082.34
2019-03-13T09:06:30.673Z,99082.73
2019-03-13T09:09:14.796Z,99075.32
2019-03-13T09:11:57.497Z,99087.24
2019-03-13T09:14:27.848Z,99079.02
2019-03-13T09:17:07.660Z,99069.55
2019-03-13T09:19:38.273Z,99069.41
2019-03-13T09:22:05.963Z,99059.09
2019-03-13T09:24:50.434Z,99055.08
2019-03-13T09:27:18.128Z,99048.89
2019-03-13T09:30:02.749Z,99047.64
2019-03-13T09:32:47.093Z,99053.70
2019-03-13T09:35:14.793Z,99049.27
2019-03-13T09:37:48.278Z,99056.31
2019-03-13T09:40:27.959Z,99056.96
2019-03-13T09:42:58.457Z,99062.41
2019-03-13T09:45:38.089Z,99058.53
2019-03-13T09:48:08.301Z,99052.36
2019-03-13T09:50:51.127Z,99046.81
2019-03-13T09:53:18.833Z,99053.30
2019-03-13T09:56:01.664Z,99049.67
2019-03-13T09:58:29.458Z,99042.67
2019-03-13T10:00:59.657Z,99040.71
2019-03-13T10:03:30.136Z,99049.98
2019-03-13T10:06:00.588Z,99048.17
2019-03-13T10:08:40.388Z,99038.36
2019-03-13T10:11:08.072Z,99035.81
2019-03-13T10:13:50.867Z,99040.64
2019-03-13T10:16:24.500Z,99031.67
2019-03-13T10:19:11.293Z,99021.41
2019-03-13T10:21:41.777Z,99029.52
2019-03-13T10:24:26.232Z,99026.75
2019-03-13T10:27:10.684Z,99020.96
2019-03-13T10:29:38.383Z,99029.92
2019-03-13T10:32:22.651Z,99021.80
2019-03-13T10:34:50.349Z,99031.25
2019-03-13T10:37:20.586Z,99024.87
2019-03-13T10:39:57.168Z,99016.63
2019-03-13T10:42:24.964Z,99013.95
2019-03-13T10:44:58.219Z,99011.88
2019-03-13T10:47:25.910Z,99012.08
2019-03-13T10:49:53.608Z,99007.78
2019-03-13T10:52:23.854Z,99001.17
2019-03-13T10:54:54.091Z,99010.77
2019-03-13T10:57:24.363Z,99009.98
2019-03-13T10:59:55.061Z,99005.77
2019-03-13T11:02:31.823Z,99017.75
2019-03-13T11:04:59.534Z,99019.17
2019-03-13T11:07:28.653Z,99010.20
2019-03-13T11:09:56.821Z,99002.81
2019-03-13T11:12:24.496Z,99002.71
2019-03-13T11:14:57.820Z,98996.83
2019-03-13T11:17:28.057Z,98997.81
2019-03-13T11:20:12.228Z,98991.28
2019-03-13T11:22:42.719Z,98993.94
2019-03-13T11:25:13.434Z,98984.09
2019-03-13T11:27:41.119Z,98970.70
2019-03-13T11:30:12.616Z,98974.53
2019-03-13T11:32:56.912Z,98968.53
2019-03-13T11:35:42.820Z,98973.77
2019-03-13T11:38:19.154Z,98965.73
2019-03-13T11:40:52.720Z,98964.56
2019-03-13T11:43:20.404Z,98963.53
2019-03-13T11:46:02.967Z,98967.91
2019-03-13T11:48:33.466Z,98957.76
2019-03-13T11:51:03.692Z,98963.02
2019-03-13T11:53:31.379Z,98950.86
2019-03-13T11:56:07.844Z,98946.23
2019-03-13T11:58:35.538Z,98946.06
2019-03-13T12:01:17.424Z,98941.02
2019-03-13T12:03:47.448Z,98939.84
2019-03-13T12:06:31.989Z,98935.33
2019-03-13T12:08:59.686Z,98929.95
2019-03-13T12:11:33.326Z,98923.94
2019-03-13T12:14:01.011Z,98927.39
2019-03-13T12:16:46.638Z,98926.36
2019-03-13T12:19:17.094Z,98922.12
2019-03-13T12:21:47.357Z,98924.38
2019-03-13T12:24:27.095Z,98923.95
2019-03-13T12:27:12.921Z,98930.04
2019-03-13T12:29:51.534Z,98925.55
2019-03-13T12:32:19.232Z,98920.23
2019-03-13T12:34:46.922Z,98930.64
2019-03-13T12:37:14.625Z,98930.52
2019-03-13T12:39:44.846Z,98913.91
2019-03-13T12:42:21.379Z,98920.15
2019-03-13T12:45:05.802Z,98913.31
2019-03-13T12:47:50.193Z,98919.28
2019-03-13T12:50:17.884Z,98922.66
2019-03-13T12:53:00.699Z,98918.09
2019-03-13T12:55:40.250Z,98915.73
2019-03-13T12:58:10.505Z,98908.23
2019-03-13T13:00:47.256Z,98895.13
2019-03-13T13:03:14.949Z,98898.08
2019-03-13T13:05:42.638Z,98887.59
2019-03-13T13:08:16.081Z,98884.38
2019-03-13T13:10:49.572Z,98885.06
2019-03-13T13:13:17.269Z,98906.73
2019-03-13T13:15:44.957Z,98893.98
2019-03-13T13:18:15.448Z,98900.92
2019-03-13T13:20:41.230Z,98891.69
2019-03-13T13:23:07.035Z,98908.15
2019-03-13T13:25:33.742Z,98890.66
2019-03-13T13:27:59.538Z,98890.42
2019-03-13T13:30:25.317Z,98891.99
2019-03-13T13:32:51.110Z,98887.97
2019-03-13T13:35:16.889Z,98891.88
2019-03-13T13:37:42.693Z,98891.92
2019-03-13T13:40:15.296Z,98898.42
2019-03-13T13:42:41.088Z,98903.41
2019-03-13T13:45:25.600Z,98920.34
2019-03-13T13:47:51.392Z,98916.25
2019-03-13T13:50:17.168Z,98917.97
2019-03-13T13:52:42.968Z,98907.52
2019-03-13T13:55:08.740Z,98907.96
2019-03-13T13:57:34.564Z,98899.26
2019-03-13T14:00:00.499Z,98912.42
2019-03-13T14:02:26.327Z,98918.34
2019-03-13T14:04:52.115Z,98926.30
2019-03-13T14:07:17.905Z,98917.38
2019-03-13T14:09:43.702Z,98912.41
2019-03-13T14:12:09.485Z,98917.34
2019-03-13T14:14:35.276Z,98907.00
2019-03-13T14:17:01.064Z,98918.28
2019-03-13T14:19:26.862Z,98908.41
2019-03-13T14:21:52.645Z,98919.23
2019-03-13T14:24:18.444Z,98908.55
2019-03-13T14:26:44.237Z,98911.23
2019-03-13T14:29:10.048Z,98917.45
2019-03-13T14:31:35.839Z,98919.52
2019-03-13T14:34:01.637Z,98908.33
2019-03-13T14:36:27.424Z,98901.02
2019-03-13T14:38:53.208Z,98904.19
2019-03-13T14:41:18.989Z,98905.09
2019-03-13T14:43:44.811Z,98904.02
2019-03-13T14:46:10.583Z,98898.14
2019-03-13T14:48:36.362Z,98896.13
2019-03-13T14:51:02.160Z,98900.23
2019-03-13T14:53:27.952Z,98898.03
2019-03-13T14:55:55.760Z,98892.59
2019-03-13T14:58:21.438Z,98884.20
2019-03-13T15:00:47.231Z,98887.66
2019-03-13T15:03:13.009Z,98885.02
2019-03-13T15:05:38.888Z,98881.45
2019-03-13T15:08:04.694Z,98883.99
2019-03-13T15:10:30.487Z,98875.72
2019-03-13T15:12:56.273Z,98878.84
2019-03-13T15:15:22.565Z,98877.53
2019-03-13T15:17:48.349Z,98879.06
2019-03-13T15:20:19.794Z,98882.36
2019-03-13T15:22:45.584Z,98872.56
2019-03-13T15:25:12.078Z,98864.76
2019-03-13T15:27:37.866Z,98868.10
2019-03-13T15:30:07.481Z,98872.42
2019-03-13T15:32:33.320Z,98862.94
2019-03-13T15:34:59.105Z,98863.25
2019-03-13T15:37:24.885Z,98867.88
2019-03-13T15:39:50.680Z,98851.31
2019-03-13T15:42:16.462Z,98845.30
2019-03-13T15:44:42.248Z,98841.06
2019-03-13T15:47:08.043Z,98839.98
2019-03-13T15:49:33.857Z,98840.22
2019-03-13T15:51:59.656Z,98838.03
2019-03-13T15:54:25.454Z,98843.50
2019-03-13T15:56:51.232Z,98851.42
2019-03-13T15:59:17.018Z,98843.81
2019-03-13T16:01:42.817Z,98837.31
2019-03-13T16:04:08.595Z,98842.89
2019-03-13T16:06:34.409Z,98837.98
2019-03-13T16:09:00.189Z,98843.20
2019-03-13T16:11:25.998Z,98848.55
2019-03-13T16:13:51.779Z,98848.55
2019-03-13T16:16:17.567Z,98838.03
2019-03-13T16:18:43.343Z,98837.77
2019-03-13T16:21:09.156Z,98838.69
2019-03-13T16:23:34.936Z,98846.44
2019-03-13T16:26:00.743Z,98852.59
2019-03-13T16:28:26.527Z,98841.45
2019-03-13T16:30:54.224Z,98853.66
2019-03-13T16:33:20.015Z,98846.16
2019-03-13T16:35:45.904Z,98836.48
2019-03-13T16:38:11.713Z,98838.47
2019-03-13T16:40:37.499Z,98835.79
2019-03-13T16:43:03.395Z,98840.72
2019-03-13T16:45:29.184Z,98840.95
2019-03-13T16:47:54.983Z,98834.87
2019-03-13T16:50:28.615Z,98838.52
2019-03-13T16:52:54.406Z,98838.21
2019-03-13T16:55:20.284Z,98820.12
2019-03-13T16:57:46.186Z,98810.95
2019-03-13T17:00:15.072Z,98820.31
2019-03-13T17:02:40.867Z,98819.59
2019-03-13T17:05:09.456Z,98817.63
2019-03-13T17:07:35.263Z,98817.63
2019-03-13T17:10:01.131Z,98808.89
2019-03-13T17:12:27.068Z,98819.59
2019-03-13T17:14:52.867Z,98828.64
2019-03-13T17:17:18.669Z,98830.60
2019-03-13T17:19:44.564Z,98820.76
2019-03-13T17:22:10.459Z,98826.41
2019-03-13T17:24:36.243Z,98825.08
2019-03-13T17:27:02.016Z,98817.13
2019-03-13T17:29:27.809Z,98826.28
2019-03-13T17:31:53.694Z,98825.89
2019-03-13T17:34:19.493Z,98821.23
2019-03-13T17:36:45.272Z,98818.17
2019-03-13T17:39:11.057Z,98811.37
2019-03-13T17:41:36.843Z,98807.38
2019-03-13T17:44:02.648Z,98802.31
2019-03-13T17:46:28.436Z,98802.31
2019-03-13T17:48:54.233Z,98803.95
2019-03-13T17:51:20.108Z,98789.09
2019-03-13T17:53:45.907Z,98798.30
2019-03-13T17:56:11.691Z,98797.73
2019-03-13T17:58:37.493Z,98792.50
2019-03-13T18:01:03.381Z,98797.23
2019-03-13T18:03:29.289Z,98797.09
2019-03-13T18:05:55.075Z,98796.79
2019-03-13T18:08:20.884Z,98801.33
2019-03-13T18:10:46.883Z,98799.27
2019-03-13T18:13:12.685Z,98806.77
2019-03-13T18:15:38.463Z,98807.69
2019-03-13T18:18:04.262Z,98799.05
2019-03-13T18:20:30.142Z,98787.08
2019-03-13T18:22:55.932Z,98781.34
2019-03-13T18:25:21.725Z,98788.34
2019-03-13T18:27:47.520Z,98781.12
2019-03-13T18:30:21.367Z,98787.61
2019-03-13T18:32:47.153Z,98768.99
2019-03-13T18:35:14.144Z,98771.36
2019-03-13T18:37:39.933Z,98760.66
2019-03-13T18:40:09.129Z,98765.20
2019-03-13T18:42:34.918Z,98758.44
2019-03-13T18:45:00.712Z,98775.69
2019-03-13T18:47:26.499Z,98779.05
2019-03-13T18:49:52.310Z,98797.59
2019-03-13T18:52:18.082Z,98811.75
2019-03-13T18:54:43.886Z,98829.34
2019-03-13T18:57:09.666Z,98813.73
2019-03-13T18:59:37.959Z,98807.81
2019-03-13T19:02:03.158Z,98815.66
2019-03-13T19:04:28.955Z,98822.65
2019-03-13T19:06:54.755Z,98820.89
2019-03-13T19:09:20.538Z,98820.75
2019-03-13T19:11:46.333Z,98824.34
2019-03-13T19:14:12.112Z,98817.98
2019-03-13T19:16:38.020Z,98825.38
2019-03-13T19:19:03.850Z,98824.72
2019-03-13T19:21:29.679Z,98837.07
2019-03-13T19:23:55.459Z,98830.98
2019-03-13T19:26:21.255Z,98835.31
2019-03-13T19:28:47.028Z,98840.83
2019-03-13T19:31:12.833Z,98849.05
2019-03-13T19:33:38.807Z,98841.52
2019-03-13T19:36:05.297Z,98849.16
2019-03-13T19:38:31.682Z,98853.38
2019-03-13T19:40:57.857Z,98850.36
2019-03-13T19:43:25.294Z,98858.39
2019-03-13T19:45:51.244Z,98857.66
2019-03-13T19:48:17.029Z,98860.73
2019-03-13T19:50:42.816Z,98872.70
2019-03-13T19:53:08.865Z,98873.81
2019-03-13T19:55:35.161Z,98884.64
2019-03-13T19:58:01.202Z,98881.84
2019-03-13T20:00:27.866Z,98892.14
2019-03-13T20:03:00.399Z,98897.27
2019-03-13T20:05:26.041Z,98896.46
2019-03-13T20:07:52.317Z,98897.16
2019-03-13T20:10:27.021Z,98904.66
2019-03-13T20:12:52.810Z,98906.11
2019-03-13T20:15:29.094Z,98905.92
2019-03-13T20:17:57.186Z,98921.88
2019-03-13T20:20:26.090Z,98920.31
2019-03-13T20:22:59.009Z,98920.23
2019-03-13T20:25:25.325Z,98927.27
2019-03-13T20:27:54.388Z,98934.23
2019-03-13T20:30:20.512Z,98936.64
2019-03-13T20:32:46.304Z,98938.25
2019-03-13T20:35:12.288Z,98948.08
2019-03-13T20:37:38.077Z,98945.56
2019-03-13T20:40:07.447Z,98956.50
2019-03-13T20:42:33.260Z,98962.08
2019-03-13T20:44:59.048Z,98964.01
2019-03-13T20:47:25.638Z,98962.47
2019-03-13T20:49:51.412Z,98967.22
2019-03-13T20:52:17.232Z,98975.48
2019-03-13T20:54:43.000Z,98976.06
2019-03-13T20:57:08.797Z,98974.33
2019-03-13T20:59:34.590Z,98974.33
2019-03-13T21:02:00.570Z,98987.08
2019-03-13T21:04:26.371Z,98998.41
2019-03-13T21:06:52.161Z,98998.83
2019-03-13T21:09:17.962Z,99013.45
2019-03-13T21:11:43.737Z,99012.42
2019-03-13T21:14:09.549Z,99011.19
2019-03-13T21:16:35.335Z,99026.54
2019-03-13T21:19:01.128Z,99029.62
2019-03-13T21:21:26.905Z,99040.96
2019-03-13T21:23:52.717Z,99039.00
2019-03-13T21:26:18.497Z,99045.59
2019-03-13T21:28:44.296Z,99050.45
2019-03-13T21:31:10.095Z,99060.33
2019-03-13T21:33:35.881Z,99063.55
2019-03-13T21:36:01.757Z,99064.47
2019-03-13T21:38:27.561Z,99080.73
2019-03-13T21:40:53.346Z,99084.13
2019-03-13T21:43:22.161Z,99094.03
2019-03-13T21:45:48.472Z,99098.77
2019-03-13T21:48:17.760Z,99110.52
2019-03-13T21:50:43.573Z,99113.52
2019-03-13T21:53:09.351Z,99120.62
2019-03-13T21:55:35.834Z,99131.73
2019-03-13T21:58:04.560Z,99132.90
2019-03-13T22:00:30.453Z,99145.35
2019-03-13T22:02:56.232Z,99149.58
2019-03-13T22:05:26.048Z,99173.15
2019-03-13T22:07:49.949Z,99157.48
2019-03-13T22:10:17.443Z,99178.41
2019-03-13T22:12:43.200Z,99193.63
2019-03-13T22:15:18.406Z,99185.59
2019-03-13T22:17:46.336Z,99191.08
2019-03-13T22:20:14.053Z,99200.95
2019-03-13T22:22:39.834Z,99216.52
2019-03-13T22:25:08.346Z,99231.11
2019-03-13T22:27:34.132Z,99223.81
2019-03-13T22:29:59.923Z,99227.09
2019-03-13T22:32:25.706Z,99234.94
2019-03-13T22:34:51.497Z,99240.17
2019-03-13T22:37:17.285Z,99247.49
2019-03-13T22:39:43.080Z,99251.33
2019-03-13T22:42:08.860Z,99253.77
2019-03-13T22:44:34.644Z,99255.11
2019-03-13T22:47:00.441Z,99261.09
2019-03-13T22:49:26.213Z,99271.49
2019-03-13T22:51:52.020Z,99267.89
2019-03-13T22:54:20.125Z,99278.73
2019-03-13T22:56:45.596Z,99278.91
2019-03-13T22:59:11.373Z,99285.42
2019-03-13T23:01:37.868Z,99291.27
2019-03-13T23:04:04.162Z,99293.45
2019-03-13T23:06:30.071Z,99304.45
2019-03-13T23:08:55.869Z,99310.75
2019-03-13T23:11:21.664Z,99321.75
2019-03-13T23:13:47.442Z,99322.37
2019-03-13T23:16:13.232Z,99312.48
2019-03-13T23:18:39.018Z,99323.11
2019-03-13T23:21:04.809Z,99331.45
2019-03-13T23:23:30.589Z,99320.09
2019-03-13T23:25:56.406Z,99334.33
2019-03-13T23:28:22.180Z,99336.16
2019-03-13T23:30:47.974Z,99332.56
2019-03-13T23:33:13.758Z,99338.66
2019-03-13T23:35:39.538Z,99342.38
2019-03-13T23:38:05.345Z,99348.42
2019-03-13T23:40:31.134Z,99357.11
2019-03-13T23:42:56.922Z,99356.25
2019-03-13T23:45:22.704Z,99362.42
2019-03-13T23:47:48.499Z,99363.55
2019-03-13T23:50:14.283Z,99379.92
2019-03-13T23:52:40.081Z,99385.48
2019-03-13T23:55:06.262Z,99394.97
2019-03-13T23:57:32.098Z,99403.39
2019-03-13T23:59:57.839Z,99409.90
